sensor_id;sensor_type;location;lat;lon;timestamp;P1;durP1;ratioP1;P2;durP2;ratioP2
12433;SDS011;6281;49.038;8.372;2023-04-15T00:01:05;4.80;;;2.90;;
12433;SDS011;6281;49.038;8.372;2023-04-15T00:03:33;4.77;;;2.93;;
12433;SDS011;6281;49.038;8.372;2023-04-15T00:06:00;5.20;;;3.33;;
12433;SDS011;6281;49.038;8.372;2023-04-15T00:08:27;6.43;;;3.53;;
12433;SDS011;6281;49.038;8.372;2023-04-15T00:10:55;6.60;;;3.70;;
12433;SDS011;6281;49.038;8.372;2023-04-15T00:13:23;6.97;;;4.20;;
12433;SDS011;6281;49.038;8.372;2023-04-15T00:15:50;5.87;;;4.07;;
12433;SDS011;6281;49.038;8.372;2023-04-15T00:18:17;6.83;;;3.83;;
12433;SDS011;6281;49.038;8.372;2023-04-15T00:20:45;5.57;;;4.30;;
12433;SDS011;6281;49.038;8.372;2023-04-15T00:23:12;6.53;;;4.20;;
12433;SDS011;6281;49.038;8.372;2023-04-15T00:25:39;6.87;;;4.53;;
12433;SDS011;6281;49.038;8.372;2023-04-15T00:28:06;6.70;;;4.10;;
12433;SDS011;6281;49.038;8.372;2023-04-15T00:30:33;4.80;;;4.03;;
12433;SDS011;6281;49.038;8.372;2023-04-15T00:33:00;7.70;;;4.10;;
12433;SDS011;6281;49.038;8.372;2023-04-15T00:35:27;8.50;;;4.20;;
12433;SDS011;6281;49.038;8.372;2023-04-15T00:37:57;5.00;;;3.83;;
12433;SDS011;6281;49.038;8.372;2023-04-15T00:40:24;8.77;;;4.20;;
12433;SDS011;6281;49.038;8.372;2023-04-15T00:42:52;6.50;;;4.30;;
12433;SDS011;6281;49.038;8.372;2023-04-15T00:45:19;6.70;;;3.70;;
12433;SDS011;6281;49.038;8.372;2023-04-15T00:47:46;6.43;;;4.10;;
12433;SDS011;6281;49.038;8.372;2023-04-15T00:50:12;5.50;;;4.10;;
12433;SDS011;6281;49.038;8.372;2023-04-15T00:52:49;5.00;;;3.60;;
12433;SDS011;6281;49.038;8.372;2023-04-15T00:55:18;6.70;;;3.10;;
12433;SDS011;6281;49.038;8.372;2023-04-15T00:57:44;5.13;;;3.30;;
12433;SDS011;6281;49.038;8.372;2023-04-15T01:00:12;6.07;;;3.80;;
12433;SDS011;6281;49.038;8.372;2023-04-15T01:02:40;7.77;;;4.20;;
12433;SDS011;6281;49.038;8.372;2023-04-15T01:05:07;4.60;;;3.70;;
12433;SDS011;6281;49.038;8.372;2023-04-15T01:07:36;5.00;;;3.87;;
12433;SDS011;6281;49.038;8.372;2023-04-15T01:10:03;5.97;;;3.57;;
12433;SDS011;6281;49.038;8.372;2023-04-15T01:12:33;4.90;;;3.67;;
12433;SDS011;6281;49.038;8.372;2023-04-15T01:15:01;5.53;;;3.83;;
12433;SDS011;6281;49.038;8.372;2023-04-15T01:17:29;5.30;;;3.47;;
12433;SDS011;6281;49.038;8.372;2023-04-15T01:19:57;4.37;;;3.03;;
12433;SDS011;6281;49.038;8.372;2023-04-15T01:22:24;4.10;;;3.40;;
12433;SDS011;6281;49.038;8.372;2023-04-15T01:24:54;4.67;;;3.10;;
12433;SDS011;6281;49.038;8.372;2023-04-15T01:27:30;4.37;;;3.10;;
12433;SDS011;6281;49.038;8.372;2023-04-15T01:29:57;5.37;;;2.50;;
12433;SDS011;6281;49.038;8.372;2023-04-15T01:32:24;4.13;;;2.63;;
12433;SDS011;6281;49.038;8.372;2023-04-15T01:34:51;5.07;;;3.00;;
12433;SDS011;6281;49.038;8.372;2023-04-15T01:37:18;5.17;;;2.53;;
12433;SDS011;6281;49.038;8.372;2023-04-15T01:39:45;3.97;;;2.63;;
12433;SDS011;6281;49.038;8.372;2023-04-15T01:42:12;3.70;;;2.70;;
12433;SDS011;6281;49.038;8.372;2023-04-15T01:44:40;3.63;;;2.40;;
12433;SDS011;6281;49.038;8.372;2023-04-15T01:47:07;4.90;;;3.03;;
12433;SDS011;6281;49.038;8.372;2023-04-15T01:49:34;4.50;;;2.90;;
12433;SDS011;6281;49.038;8.372;2023-04-15T01:52:01;4.70;;;2.67;;
12433;SDS011;6281;49.038;8.372;2023-04-15T01:54:40;3.77;;;2.73;;
12433;SDS011;6281;49.038;8.372;2023-04-15T01:57:07;5.50;;;2.67;;
12433;SDS011;6281;49.038;8.372;2023-04-15T01:59:34;4.23;;;2.73;;
12433;SDS011;6281;49.038;8.372;2023-04-15T02:02:02;5.27;;;2.90;;
12433;SDS011;6281;49.038;8.372;2023-04-15T02:04:30;3.87;;;2.80;;
12433;SDS011;6281;49.038;8.372;2023-04-15T02:06:57;4.47;;;3.20;;
12433;SDS011;6281;49.038;8.372;2023-04-15T02:09:23;7.27;;;3.10;;
12433;SDS011;6281;49.038;8.372;2023-04-15T02:11:50;6.47;;;2.90;;
12433;SDS011;6281;49.038;8.372;2023-04-15T02:14:18;6.13;;;3.10;;
12433;SDS011;6281;49.038;8.372;2023-04-15T02:16:45;4.77;;;2.87;;
12433;SDS011;6281;49.038;8.372;2023-04-15T02:19:13;3.27;;;2.63;;
12433;SDS011;6281;49.038;8.372;2023-04-15T02:21:40;4.80;;;2.77;;
12433;SDS011;6281;49.038;8.372;2023-04-15T02:24:07;3.93;;;3.03;;
12433;SDS011;6281;49.038;8.372;2023-04-15T02:26:36;3.80;;;2.57;;
12433;SDS011;6281;49.038;8.372;2023-04-15T02:29:02;3.77;;;2.60;;
12433;SDS011;6281;49.038;8.372;2023-04-15T02:31:29;4.57;;;2.50;;
12433;SDS011;6281;49.038;8.372;2023-04-15T02:34:00;4.17;;;2.73;;
12433;SDS011;6281;49.038;8.372;2023-04-15T02:36:30;4.80;;;2.60;;
12433;SDS011;6281;49.038;8.372;2023-04-15T02:38:58;5.20;;;2.70;;
12433;SDS011;6281;49.038;8.372;2023-04-15T02:41:25;6.33;;;3.20;;
12433;SDS011;6281;49.038;8.372;2023-04-15T02:43:52;5.30;;;3.20;;
12433;SDS011;6281;49.038;8.372;2023-04-15T02:46:19;4.40;;;2.83;;
12433;SDS011;6281;49.038;8.372;2023-04-15T02:48:46;5.57;;;2.97;;
12433;SDS011;6281;49.038;8.372;2023-04-15T02:51:14;5.10;;;3.07;;
12433;SDS011;6281;49.038;8.372;2023-04-15T02:53:45;6.00;;;2.90;;
12433;SDS011;6281;49.038;8.372;2023-04-15T02:56:12;5.70;;;2.83;;
12433;SDS011;6281;49.038;8.372;2023-04-15T02:58:40;5.10;;;2.73;;
12433;SDS011;6281;49.038;8.372;2023-04-15T03:01:07;5.03;;;2.73;;
12433;SDS011;6281;49.038;8.372;2023-04-15T03:03:34;3.80;;;2.70;;
12433;SDS011;6281;49.038;8.372;2023-04-15T03:06:01;3.87;;;3.13;;
12433;SDS011;6281;49.038;8.372;2023-04-15T03:08:28;7.23;;;3.07;;
12433;SDS011;6281;49.038;8.372;2023-04-15T03:10:58;5.00;;;3.00;;
12433;SDS011;6281;49.038;8.372;2023-04-15T03:13:26;3.87;;;2.70;;
12433;SDS011;6281;49.038;8.372;2023-04-15T03:15:53;3.70;;;2.57;;
12433;SDS011;6281;49.038;8.372;2023-04-15T03:18:20;5.10;;;2.60;;
12433;SDS011;6281;49.038;8.372;2023-04-15T03:20:47;3.33;;;2.77;;
12433;SDS011;6281;49.038;8.372;2023-04-15T03:23:14;7.20;;;3.03;;
12433;SDS011;6281;49.038;8.372;2023-04-15T03:25:41;4.17;;;2.63;;
12433;SDS011;6281;49.038;8.372;2023-04-15T03:28:11;4.07;;;3.23;;
12433;SDS011;6281;49.038;8.372;2023-04-15T03:30:38;4.37;;;2.73;;
12433;SDS011;6281;49.038;8.372;2023-04-15T03:33:05;6.27;;;2.43;;
12433;SDS011;6281;49.038;8.372;2023-04-15T03:35:32;3.30;;;2.80;;
12433;SDS011;6281;49.038;8.372;2023-04-15T03:37:59;3.53;;;2.77;;
12433;SDS011;6281;49.038;8.372;2023-04-15T03:40:26;6.60;;;2.70;;
12433;SDS011;6281;49.038;8.372;2023-04-15T03:42:53;3.20;;;2.50;;
12433;SDS011;6281;49.038;8.372;2023-04-15T03:45:21;4.97;;;2.60;;
12433;SDS011;6281;49.038;8.372;2023-04-15T03:47:48;3.90;;;2.77;;
12433;SDS011;6281;49.038;8.372;2023-04-15T03:50:15;5.00;;;2.97;;
12433;SDS011;6281;49.038;8.372;2023-04-15T03:52:43;3.93;;;2.70;;
12433;SDS011;6281;49.038;8.372;2023-04-15T03:55:10;5.13;;;2.60;;
12433;SDS011;6281;49.038;8.372;2023-04-15T03:57:37;4.90;;;3.00;;
12433;SDS011;6281;49.038;8.372;2023-04-15T04:00:05;3.50;;;2.97;;
12433;SDS011;6281;49.038;8.372;2023-04-15T04:02:36;3.27;;;2.77;;
12433;SDS011;6281;49.038;8.372;2023-04-15T04:05:03;3.70;;;2.97;;
12433;SDS011;6281;49.038;8.372;2023-04-15T04:07:30;4.57;;;2.87;;
12433;SDS011;6281;49.038;8.372;2023-04-15T04:09:57;3.67;;;2.70;;
12433;SDS011;6281;49.038;8.372;2023-04-15T04:12:24;3.67;;;2.80;;
12433;SDS011;6281;49.038;8.372;2023-04-15T04:14:50;4.10;;;3.00;;
12433;SDS011;6281;49.038;8.372;2023-04-15T04:17:17;5.13;;;3.03;;
12433;SDS011;6281;49.038;8.372;2023-04-15T04:19:46;6.13;;;3.43;;
12433;SDS011;6281;49.038;8.372;2023-04-15T04:22:13;4.40;;;2.97;;
12433;SDS011;6281;49.038;8.372;2023-04-15T04:24:39;6.10;;;2.93;;
12433;SDS011;6281;49.038;8.372;2023-04-15T04:27:06;3.80;;;2.77;;
12433;SDS011;6281;49.038;8.372;2023-04-15T04:29:34;5.67;;;3.27;;
12433;SDS011;6281;49.038;8.372;2023-04-15T04:32:01;5.47;;;3.10;;
12433;SDS011;6281;49.038;8.372;2023-04-15T04:34:27;7.53;;;3.17;;
12433;SDS011;6281;49.038;8.372;2023-04-15T04:36:56;4.47;;;2.83;;
12433;SDS011;6281;49.038;8.372;2023-04-15T04:39:23;4.60;;;3.40;;
12433;SDS011;6281;49.038;8.372;2023-04-15T04:41:50;3.67;;;3.00;;
12433;SDS011;6281;49.038;8.372;2023-04-15T04:44:17;6.73;;;3.33;;
12433;SDS011;6281;49.038;8.372;2023-04-15T04:46:44;3.83;;;2.90;;
12433;SDS011;6281;49.038;8.372;2023-04-15T04:49:11;4.17;;;2.70;;
12433;SDS011;6281;49.038;8.372;2023-04-15T04:51:37;5.40;;;3.10;;
12433;SDS011;6281;49.038;8.372;2023-04-15T04:54:16;5.90;;;3.40;;
12433;SDS011;6281;49.038;8.372;2023-04-15T04:56:43;4.17;;;3.10;;
12433;SDS011;6281;49.038;8.372;2023-04-15T04:59:10;6.10;;;2.90;;
12433;SDS011;6281;49.038;8.372;2023-04-15T05:01:37;4.77;;;3.00;;
12433;SDS011;6281;49.038;8.372;2023-04-15T05:04:04;5.90;;;3.33;;
12433;SDS011;6281;49.038;8.372;2023-04-15T05:06:31;3.13;;;2.73;;
12433;SDS011;6281;49.038;8.372;2023-04-15T05:09:00;5.30;;;3.67;;
12433;SDS011;6281;49.038;8.372;2023-04-15T05:11:28;5.47;;;3.50;;
12433;SDS011;6281;49.038;8.372;2023-04-15T05:13:55;4.93;;;3.40;;
12433;SDS011;6281;49.038;8.372;2023-04-15T05:16:23;4.10;;;3.30;;
12433;SDS011;6281;49.038;8.372;2023-04-15T05:18:51;6.43;;;3.80;;
12433;SDS011;6281;49.038;8.372;2023-04-15T05:21:17;4.00;;;3.40;;
12433;SDS011;6281;49.038;8.372;2023-04-15T05:23:45;9.43;;;3.30;;
12433;SDS011;6281;49.038;8.372;2023-04-15T05:26:12;4.17;;;3.10;;
12433;SDS011;6281;49.038;8.372;2023-04-15T05:28:40;6.47;;;3.60;;
12433;SDS011;6281;49.038;8.372;2023-04-15T05:31:07;4.77;;;3.40;;
12433;SDS011;6281;49.038;8.372;2023-04-15T05:33:34;5.63;;;3.50;;
12433;SDS011;6281;49.038;8.372;2023-04-15T05:36:02;5.07;;;3.87;;
12433;SDS011;6281;49.038;8.372;2023-04-15T05:38:29;5.23;;;3.97;;
12433;SDS011;6281;49.038;8.372;2023-04-15T05:40:55;5.87;;;3.73;;
12433;SDS011;6281;49.038;8.372;2023-04-15T05:43:23;7.20;;;4.43;;
12433;SDS011;6281;49.038;8.372;2023-04-15T05:45:51;4.53;;;3.50;;
12433;SDS011;6281;49.038;8.372;2023-04-15T05:48:18;6.40;;;3.63;;
12433;SDS011;6281;49.038;8.372;2023-04-15T05:50:45;6.33;;;3.40;;
12433;SDS011;6281;49.038;8.372;2023-04-15T05:53:14;3.93;;;2.97;;
12433;SDS011;6281;49.038;8.372;2023-04-15T05:55:41;7.27;;;3.53;;
12433;SDS011;6281;49.038;8.372;2023-04-15T05:58:08;8.77;;;4.83;;
12433;SDS011;6281;49.038;8.372;2023-04-15T06:00:35;8.80;;;4.53;;
12433;SDS011;6281;49.038;8.372;2023-04-15T06:03:04;5.03;;;3.60;;
12433;SDS011;6281;49.038;8.372;2023-04-15T06:05:31;6.83;;;3.63;;
12433;SDS011;6281;49.038;8.372;2023-04-15T06:07:58;4.40;;;2.97;;
12433;SDS011;6281;49.038;8.372;2023-04-15T06:10:25;6.07;;;3.13;;
12433;SDS011;6281;49.038;8.372;2023-04-15T06:12:52;4.63;;;3.30;;
12433;SDS011;6281;49.038;8.372;2023-04-15T06:15:19;4.37;;;3.20;;
12433;SDS011;6281;49.038;8.372;2023-04-15T06:17:46;4.77;;;2.90;;
12433;SDS011;6281;49.038;8.372;2023-04-15T06:20:14;4.17;;;3.00;;
12433;SDS011;6281;49.038;8.372;2023-04-15T06:22:41;4.53;;;2.57;;
12433;SDS011;6281;49.038;8.372;2023-04-15T06:25:08;6.03;;;3.00;;
12433;SDS011;6281;49.038;8.372;2023-04-15T06:27:35;4.63;;;3.07;;
12433;SDS011;6281;49.038;8.372;2023-04-15T06:30:02;4.60;;;3.07;;
12433;SDS011;6281;49.038;8.372;2023-04-15T06:32:30;5.03;;;3.43;;
12433;SDS011;6281;49.038;8.372;2023-04-15T06:34:57;6.60;;;3.70;;
12433;SDS011;6281;49.038;8.372;2023-04-15T06:37:26;9.83;;;4.60;;
12433;SDS011;6281;49.038;8.372;2023-04-15T06:39:53;6.10;;;3.10;;
12433;SDS011;6281;49.038;8.372;2023-04-15T06:42:20;5.60;;;3.10;;
12433;SDS011;6281;49.038;8.372;2023-04-15T06:44:47;5.67;;;2.77;;
12433;SDS011;6281;49.038;8.372;2023-04-15T06:47:14;4.70;;;3.33;;
12433;SDS011;6281;49.038;8.372;2023-04-15T06:49:40;11.10;;;7.03;;
12433;SDS011;6281;49.038;8.372;2023-04-15T06:52:09;10.30;;;5.97;;
12433;SDS011;6281;49.038;8.372;2023-04-15T06:54:38;11.27;;;5.50;;
12433;SDS011;6281;49.038;8.372;2023-04-15T06:57:05;6.87;;;4.57;;
12433;SDS011;6281;49.038;8.372;2023-04-15T06:59:33;7.60;;;3.70;;
12433;SDS011;6281;49.038;8.372;2023-04-15T07:02:00;8.17;;;3.87;;
12433;SDS011;6281;49.038;8.372;2023-04-15T07:04:27;7.80;;;3.93;;
12433;SDS011;6281;49.038;8.372;2023-04-15T07:06:53;6.37;;;3.80;;
12433;SDS011;6281;49.038;8.372;2023-04-15T07:09:21;5.83;;;3.30;;
12433;SDS011;6281;49.038;8.372;2023-04-15T07:11:50;5.10;;;3.37;;
12433;SDS011;6281;49.038;8.372;2023-04-15T07:14:17;4.87;;;3.37;;
12433;SDS011;6281;49.038;8.372;2023-04-15T07:16:44;6.83;;;3.50;;
12433;SDS011;6281;49.038;8.372;2023-04-15T07:19:11;5.97;;;3.43;;
12433;SDS011;6281;49.038;8.372;2023-04-15T07:21:38;6.90;;;3.90;;
12433;SDS011;6281;49.038;8.372;2023-04-15T07:24:05;6.77;;;4.10;;
12433;SDS011;6281;49.038;8.372;2023-04-15T07:26:32;5.97;;;4.07;;
12433;SDS011;6281;49.038;8.372;2023-04-15T07:29:01;5.93;;;3.70;;
12433;SDS011;6281;49.038;8.372;2023-04-15T07:31:28;5.60;;;3.40;;
12433;SDS011;6281;49.038;8.372;2023-04-15T07:33:55;7.67;;;3.80;;
12433;SDS011;6281;49.038;8.372;2023-04-15T07:36:22;4.90;;;3.00;;
12433;SDS011;6281;49.038;8.372;2023-04-15T07:38:49;10.73;;;5.50;;
12433;SDS011;6281;49.038;8.372;2023-04-15T07:41:16;4.30;;;3.20;;
12433;SDS011;6281;49.038;8.372;2023-04-15T07:43:44;5.43;;;3.20;;
12433;SDS011;6281;49.038;8.372;2023-04-15T07:46:13;7.20;;;3.50;;
12433;SDS011;6281;49.038;8.372;2023-04-15T07:48:40;4.60;;;3.10;;
12433;SDS011;6281;49.038;8.372;2023-04-15T07:51:07;5.90;;;2.73;;
12433;SDS011;6281;49.038;8.372;2023-04-15T07:53:35;4.57;;;2.90;;
12433;SDS011;6281;49.038;8.372;2023-04-15T07:56:03;5.20;;;2.83;;
12433;SDS011;6281;49.038;8.372;2023-04-15T07:58:30;7.27;;;3.40;;
12433;SDS011;6281;49.038;8.372;2023-04-15T08:00:57;3.77;;;3.00;;
12433;SDS011;6281;49.038;8.372;2023-04-15T08:03:26;6.50;;;3.00;;
12433;SDS011;6281;49.038;8.372;2023-04-15T08:05:53;5.53;;;3.23;;
12433;SDS011;6281;49.038;8.372;2023-04-15T08:08:20;6.93;;;3.57;;
12433;SDS011;6281;49.038;8.372;2023-04-15T08:10:47;4.63;;;3.00;;
12433;SDS011;6281;49.038;8.372;2023-04-15T08:13:14;5.17;;;2.90;;
12433;SDS011;6281;49.038;8.372;2023-04-15T08:15:41;7.57;;;3.17;;
12433;SDS011;6281;49.038;8.372;2023-04-15T08:18:08;6.27;;;3.37;;
12433;SDS011;6281;49.038;8.372;2023-04-15T08:20:37;8.77;;;3.97;;
12433;SDS011;6281;49.038;8.372;2023-04-15T08:23:04;3.97;;;3.17;;
12433;SDS011;6281;49.038;8.372;2023-04-15T08:25:31;7.17;;;3.70;;
12433;SDS011;6281;49.038;8.372;2023-04-15T08:27:58;6.57;;;4.57;;
12433;SDS011;6281;49.038;8.372;2023-04-15T08:30:29;8.50;;;4.40;;
12433;SDS011;6281;49.038;8.372;2023-04-15T08:32:56;8.77;;;5.03;;
12433;SDS011;6281;49.038;8.372;2023-04-15T08:35:22;9.87;;;5.23;;
12433;SDS011;6281;49.038;8.372;2023-04-15T08:37:51;6.80;;;5.00;;
12433;SDS011;6281;49.038;8.372;2023-04-15T08:40:18;8.10;;;4.97;;
12433;SDS011;6281;49.038;8.372;2023-04-15T08:42:47;7.30;;;5.13;;
12433;SDS011;6281;49.038;8.372;2023-04-15T08:45:17;8.43;;;4.80;;
12433;SDS011;6281;49.038;8.372;2023-04-15T08:47:45;7.53;;;4.57;;
12433;SDS011;6281;49.038;8.372;2023-04-15T08:50:14;8.77;;;4.40;;
12433;SDS011;6281;49.038;8.372;2023-04-15T08:52:41;7.17;;;4.80;;
12433;SDS011;6281;49.038;8.372;2023-04-15T08:55:10;9.17;;;4.97;;
12433;SDS011;6281;49.038;8.372;2023-04-15T08:57:39;9.17;;;5.70;;
12433;SDS011;6281;49.038;8.372;2023-04-15T09:00:06;8.37;;;5.33;;
12433;SDS011;6281;49.038;8.372;2023-04-15T09:02:34;8.70;;;5.30;;
12433;SDS011;6281;49.038;8.372;2023-04-15T09:05:01;6.90;;;5.00;;
12433;SDS011;6281;49.038;8.372;2023-04-15T09:07:32;5.73;;;5.00;;
12433;SDS011;6281;49.038;8.372;2023-04-15T09:09:59;8.27;;;4.90;;
12433;SDS011;6281;49.038;8.372;2023-04-15T09:12:28;10.70;;;5.43;;
12433;SDS011;6281;49.038;8.372;2023-04-15T09:15:02;7.50;;;4.20;;
12433;SDS011;6281;49.038;8.372;2023-04-15T09:17:29;7.63;;;4.50;;
12433;SDS011;6281;49.038;8.372;2023-04-15T09:20:06;7.00;;;4.63;;
12433;SDS011;6281;49.038;8.372;2023-04-15T09:22:34;6.30;;;4.33;;
12433;SDS011;6281;49.038;8.372;2023-04-15T09:25:02;7.00;;;4.57;;
12433;SDS011;6281;49.038;8.372;2023-04-15T09:27:31;7.77;;;4.17;;
12433;SDS011;6281;49.038;8.372;2023-04-15T09:30:02;5.47;;;4.30;;
12433;SDS011;6281;49.038;8.372;2023-04-15T09:32:34;7.73;;;4.43;;
12433;SDS011;6281;49.038;8.372;2023-04-15T09:35:09;7.30;;;4.93;;
12433;SDS011;6281;49.038;8.372;2023-04-15T09:37:37;6.80;;;5.10;;
12433;SDS011;6281;49.038;8.372;2023-04-15T09:40:04;6.37;;;5.30;;
12433;SDS011;6281;49.038;8.372;2023-04-15T09:42:35;7.87;;;4.80;;
12433;SDS011;6281;49.038;8.372;2023-04-15T09:45:08;7.73;;;5.23;;
12433;SDS011;6281;49.038;8.372;2023-04-15T09:47:36;6.77;;;4.80;;
12433;SDS011;6281;49.038;8.372;2023-04-15T09:50:04;7.43;;;4.87;;
12433;SDS011;6281;49.038;8.372;2023-04-15T09:55:42;9.27;;;6.07;;
12433;SDS011;6281;49.038;8.372;2023-04-15T09:58:17;7.37;;;5.10;;
12433;SDS011;6281;49.038;8.372;2023-04-15T10:00:46;6.80;;;5.07;;
12433;SDS011;6281;49.038;8.372;2023-04-15T10:03:13;8.27;;;5.37;;
12433;SDS011;6281;49.038;8.372;2023-04-15T10:05:44;8.57;;;5.60;;
12433;SDS011;6281;49.038;8.372;2023-04-15T10:08:13;6.90;;;5.77;;
12433;SDS011;6281;49.038;8.372;2023-04-15T10:10:41;7.50;;;6.00;;
12433;SDS011;6281;49.038;8.372;2023-04-15T10:13:08;12.60;;;5.70;;
12433;SDS011;6281;49.038;8.372;2023-04-15T10:15:37;9.67;;;6.67;;
12433;SDS011;6281;49.038;8.372;2023-04-15T10:18:05;8.60;;;6.30;;
12433;SDS011;6281;49.038;8.372;2023-04-15T10:20:35;9.97;;;5.70;;
12433;SDS011;6281;49.038;8.372;2023-04-15T10:23:03;10.60;;;5.97;;
12433;SDS011;6281;49.038;8.372;2023-04-15T10:25:30;11.63;;;6.10;;
12433;SDS011;6281;49.038;8.372;2023-04-15T10:27:59;10.53;;;6.67;;
12433;SDS011;6281;49.038;8.372;2023-04-15T10:30:26;9.20;;;5.80;;
12433;SDS011;6281;49.038;8.372;2023-04-15T10:32:56;8.90;;;5.63;;
12433;SDS011;6281;49.038;8.372;2023-04-15T10:35:23;7.77;;;5.13;;
12433;SDS011;6281;49.038;8.372;2023-04-15T10:37:50;13.90;;;6.53;;
12433;SDS011;6281;49.038;8.372;2023-04-15T10:40:24;9.40;;;6.00;;
12433;SDS011;6281;49.038;8.372;2023-04-15T10:42:52;8.23;;;5.80;;
12433;SDS011;6281;49.038;8.372;2023-04-15T10:45:20;9.20;;;6.17;;
12433;SDS011;6281;49.038;8.372;2023-04-15T10:47:50;8.00;;;5.07;;
12433;SDS011;6281;49.038;8.372;2023-04-15T10:50:20;9.63;;;5.03;;
12433;SDS011;6281;49.038;8.372;2023-04-15T10:52:54;6.80;;;4.77;;
12433;SDS011;6281;49.038;8.372;2023-04-15T10:55:22;10.23;;;4.50;;
12433;SDS011;6281;49.038;8.372;2023-04-15T10:57:51;11.67;;;4.87;;
12433;SDS011;6281;49.038;8.372;2023-04-15T11:00:19;8.67;;;4.73;;
12433;SDS011;6281;49.038;8.372;2023-04-15T11:02:51;5.93;;;5.20;;
12433;SDS011;6281;49.038;8.372;2023-04-15T11:05:22;8.70;;;5.53;;
12433;SDS011;6281;49.038;8.372;2023-04-15T11:08:09;8.27;;;5.00;;
12433;SDS011;6281;49.038;8.372;2023-04-15T11:13:22;7.20;;;5.00;;
12433;SDS011;6281;49.038;8.372;2023-04-15T11:15:56;5.73;;;3.97;;
12433;SDS011;6281;49.038;8.372;2023-04-15T11:18:25;5.40;;;3.40;;
12433;SDS011;6281;49.038;8.372;2023-04-15T11:20:56;3.47;;;2.37;;
12433;SDS011;6281;49.038;8.372;2023-04-15T11:23:28;4.70;;;2.70;;
12433;SDS011;6281;49.038;8.372;2023-04-15T11:25:58;4.13;;;2.70;;
12433;SDS011;6281;49.038;8.372;2023-04-15T11:28:25;2.90;;;2.17;;
12433;SDS011;6281;49.038;8.372;2023-04-15T11:30:53;4.00;;;2.30;;
12433;SDS011;6281;49.038;8.372;2023-04-15T11:33:20;4.13;;;2.53;;
12433;SDS011;6281;49.038;8.372;2023-04-15T11:35:48;4.53;;;2.83;;
12433;SDS011;6281;49.038;8.372;2023-04-15T11:38:17;7.17;;;3.07;;
12433;SDS011;6281;49.038;8.372;2023-04-15T11:40:44;7.03;;;2.47;;
12433;SDS011;6281;49.038;8.372;2023-04-15T11:43:11;3.77;;;2.50;;
12433;SDS011;6281;49.038;8.372;2023-04-15T11:45:47;6.27;;;3.13;;
12433;SDS011;6281;49.038;8.372;2023-04-15T11:48:15;4.03;;;2.60;;
12433;SDS011;6281;49.038;8.372;2023-04-15T11:50:42;5.33;;;2.53;;
12433;SDS011;6281;49.038;8.372;2023-04-15T11:53:10;4.63;;;2.83;;
12433;SDS011;6281;49.038;8.372;2023-04-15T11:55:45;4.80;;;2.83;;
12433;SDS011;6281;49.038;8.372;2023-04-15T11:58:14;3.90;;;2.37;;
12433;SDS011;6281;49.038;8.372;2023-04-15T12:00:45;4.27;;;2.50;;
12433;SDS011;6281;49.038;8.372;2023-04-15T12:03:16;3.00;;;2.20;;
12433;SDS011;6281;49.038;8.372;2023-04-15T12:06:03;3.10;;;2.20;;
12433;SDS011;6281;49.038;8.372;2023-04-15T12:08:50;4.93;;;2.23;;
12433;SDS011;6281;49.038;8.372;2023-04-15T12:11:36;7.13;;;2.50;;
12433;SDS011;6281;49.038;8.372;2023-04-15T12:14:08;6.97;;;3.70;;
12433;SDS011;6281;49.038;8.372;2023-04-15T12:16:37;5.50;;;3.07;;
12433;SDS011;6281;49.038;8.372;2023-04-15T12:19:06;4.80;;;3.07;;
12433;SDS011;6281;49.038;8.372;2023-04-15T12:21:35;4.17;;;2.93;;
12433;SDS011;6281;49.038;8.372;2023-04-15T12:24:04;7.50;;;3.67;;
12433;SDS011;6281;49.038;8.372;2023-04-15T12:26:33;6.03;;;3.03;;
12433;SDS011;6281;49.038;8.372;2023-04-15T12:29:04;5.97;;;3.57;;
12433;SDS011;6281;49.038;8.372;2023-04-15T12:31:33;4.67;;;3.50;;
12433;SDS011;6281;49.038;8.372;2023-04-15T12:34:00;4.73;;;3.13;;
12433;SDS011;6281;49.038;8.372;2023-04-15T12:36:28;4.00;;;3.00;;
12433;SDS011;6281;49.038;8.372;2023-04-15T12:39:00;4.63;;;2.70;;
12433;SDS011;6281;49.038;8.372;2023-04-15T12:41:27;5.17;;;2.97;;
12433;SDS011;6281;49.038;8.372;2023-04-15T12:43:55;5.30;;;3.03;;
12433;SDS011;6281;49.038;8.372;2023-04-15T12:46:22;6.03;;;3.23;;
12433;SDS011;6281;49.038;8.372;2023-04-15T12:48:49;5.50;;;3.50;;
12433;SDS011;6281;49.038;8.372;2023-04-15T12:51:17;4.17;;;3.30;;
12433;SDS011;6281;49.038;8.372;2023-04-15T12:53:45;4.17;;;2.93;;
12433;SDS011;6281;49.038;8.372;2023-04-15T12:56:13;4.63;;;2.67;;
12433;SDS011;6281;49.038;8.372;2023-04-15T12:58:40;6.23;;;2.90;;
12433;SDS011;6281;49.038;8.372;2023-04-15T13:01:08;4.27;;;2.63;;
12433;SDS011;6281;49.038;8.372;2023-04-15T13:03:35;3.53;;;2.50;;
12433;SDS011;6281;49.038;8.372;2023-04-15T13:06:02;3.00;;;2.27;;
12433;SDS011;6281;49.038;8.372;2023-04-15T13:08:30;5.13;;;2.73;;
12433;SDS011;6281;49.038;8.372;2023-04-15T13:10:56;6.53;;;2.70;;
12433;SDS011;6281;49.038;8.372;2023-04-15T13:13:24;4.10;;;3.00;;
12433;SDS011;6281;49.038;8.372;2023-04-15T13:15:52;3.27;;;2.83;;
12433;SDS011;6281;49.038;8.372;2023-04-15T13:18:20;5.43;;;3.20;;
12433;SDS011;6281;49.038;8.372;2023-04-15T13:20:47;5.37;;;3.17;;
12433;SDS011;6281;49.038;8.372;2023-04-15T13:23:14;6.17;;;3.10;;
12433;SDS011;6281;49.038;8.372;2023-04-15T13:25:41;4.10;;;2.97;;
12433;SDS011;6281;49.038;8.372;2023-04-15T13:28:09;4.97;;;3.10;;
12433;SDS011;6281;49.038;8.372;2023-04-15T13:30:36;4.90;;;3.70;;
12433;SDS011;6281;49.038;8.372;2023-04-15T13:33:03;3.87;;;3.40;;
12433;SDS011;6281;49.038;8.372;2023-04-15T13:35:32;5.50;;;3.70;;
12433;SDS011;6281;49.038;8.372;2023-04-15T13:37:59;6.57;;;4.33;;
12433;SDS011;6281;49.038;8.372;2023-04-15T13:40:25;5.93;;;3.37;;
12433;SDS011;6281;49.038;8.372;2023-04-15T13:42:52;4.20;;;3.33;;
12433;SDS011;6281;49.038;8.372;2023-04-15T13:45:20;5.80;;;3.20;;
12433;SDS011;6281;49.038;8.372;2023-04-15T13:47:46;3.30;;;3.00;;
12433;SDS011;6281;49.038;8.372;2023-04-15T13:50:13;5.23;;;3.17;;
12433;SDS011;6281;49.038;8.372;2023-04-15T13:52:41;4.30;;;3.20;;
12433;SDS011;6281;49.038;8.372;2023-04-15T13:55:08;5.87;;;3.23;;
12433;SDS011;6281;49.038;8.372;2023-04-15T13:57:35;4.77;;;3.30;;
12433;SDS011;6281;49.038;8.372;2023-04-15T14:00:02;3.90;;;2.87;;
12433;SDS011;6281;49.038;8.372;2023-04-15T14:02:30;5.27;;;3.50;;
12433;SDS011;6281;49.038;8.372;2023-04-15T14:04:57;6.07;;;3.17;;
12433;SDS011;6281;49.038;8.372;2023-04-15T14:07:23;5.90;;;3.40;;
12433;SDS011;6281;49.038;8.372;2023-04-15T14:09:52;4.03;;;3.10;;
12433;SDS011;6281;49.038;8.372;2023-04-15T14:12:18;4.80;;;3.10;;
12433;SDS011;6281;49.038;8.372;2023-04-15T14:14:45;5.83;;;3.60;;
12433;SDS011;6281;49.038;8.372;2023-04-15T14:17:12;4.13;;;2.77;;
12433;SDS011;6281;49.038;8.372;2023-04-15T14:19:39;4.23;;;2.83;;
12433;SDS011;6281;49.038;8.372;2023-04-15T14:22:06;8.07;;;2.50;;
12433;SDS011;6281;49.038;8.372;2023-04-15T14:24:33;3.20;;;2.27;;
12433;SDS011;6281;49.038;8.372;2023-04-15T14:27:01;3.93;;;2.43;;
12433;SDS011;6281;49.038;8.372;2023-04-15T14:29:28;3.63;;;2.10;;
12433;SDS011;6281;49.038;8.372;2023-04-15T14:31:55;3.57;;;2.00;;
12433;SDS011;6281;49.038;8.372;2023-04-15T14:34:22;4.83;;;2.20;;
12433;SDS011;6281;49.038;8.372;2023-04-15T14:36:50;2.27;;;1.63;;
12433;SDS011;6281;49.038;8.372;2023-04-15T14:39:17;4.20;;;2.03;;
12433;SDS011;6281;49.038;8.372;2023-04-15T14:41:43;3.43;;;1.83;;
12433;SDS011;6281;49.038;8.372;2023-04-15T14:44:11;4.17;;;2.20;;
12433;SDS011;6281;49.038;8.372;2023-04-15T14:46:38;4.83;;;2.40;;
12433;SDS011;6281;49.038;8.372;2023-04-15T14:49:05;2.50;;;1.77;;
12433;SDS011;6281;49.038;8.372;2023-04-15T14:51:32;3.63;;;2.20;;
12433;SDS011;6281;49.038;8.372;2023-04-15T14:53:59;3.63;;;1.80;;
12433;SDS011;6281;49.038;8.372;2023-04-15T14:56:26;2.57;;;1.50;;
12433;SDS011;6281;49.038;8.372;2023-04-15T14:58:52;3.53;;;1.90;;
12433;SDS011;6281;49.038;8.372;2023-04-15T15:01:21;1.33;;;1.20;;
12433;SDS011;6281;49.038;8.372;2023-04-15T15:03:47;2.27;;;1.30;;
12433;SDS011;6281;49.038;8.372;2023-04-15T15:06:15;2.93;;;1.53;;
12433;SDS011;6281;49.038;8.372;2023-04-15T15:08:41;3.73;;;1.10;;
12433;SDS011;6281;49.038;8.372;2023-04-15T15:11:08;4.40;;;1.40;;